sensor_id;sensor_type;location;lat;lon;timestamp;temperature;humidity
2997;DHT22;1508;48.744;9.110;2022-08-18T00:01:13;19.30;99.90
2997;DHT22;1508;48.744;9.110;2022-08-18T00:04:00;19.30;99.90
2997;DHT22;1508;48.744;9.110;2022-08-18T00:06:45;19.20;99.90
2997;DHT22;1508;48.744;9.110;2022-08-18T00:09:33;19.20;99.90
2997;DHT22;1508;48.744;9.110;2022-08-18T00:15:12;19.20;99.90
2997;DHT22;1508;48.744;9.110;2022-08-18T00:17:58;19.20;99.90
2997;DHT22;1508;48.744;9.110;2022-08-18T00:20:44;19.20;99.90
2997;DHT22;1508;48.744;9.110;2022-08-18T00:23:30;19.20;99.90
2997;DHT22;1508;48.744;9.110;2022-08-18T00:26:16;19.20;99.90
2997;DHT22;1508;48.744;9.110;2022-08-18T00:29:02;19.20;99.90
2997;DHT22;1508;48.744;9.110;2022-08-18T00:31:49;19.30;99.90
2997;DHT22;1508;48.744;9.110;2022-08-18T00:34:35;19.30;99.90
2997;DHT22;1508;48.744;9.110;2022-08-18T00:37:22;19.30;99.90
2997;DHT22;1508;48.744;9.110;2022-08-18T00:40:11;19.30;99.90
2997;DHT22;1508;48.744;9.110;2022-08-18T00:43:00;19.30;99.90
2997;DHT22;1508;48.744;9.110;2022-08-18T00:45:47;19.30;99.90
2997;DHT22;1508;48.744;9.110;2022-08-18T00:48:33;19.20;99.90
2997;DHT22;1508;48.744;9.110;2022-08-18T00:51:26;19.30;99.90
2997;DHT22;1508;48.744;9.110;2022-08-18T00:54:25;19.30;99.90
2997;DHT22;1508;48.744;9.110;2022-08-18T00:57:15;19.30;99.90
2997;DHT22;1508;48.744;9.110;2022-08-18T01:00:06;19.30;99.90
2997;DHT22;1508;48.744;9.110;2022-08-18T01:02:57;19.30;99.90
2997;DHT22;1508;48.744;9.110;2022-08-18T01:05:54;19.30;99.90
2997;DHT22;1508;48.744;9.110;2022-08-18T01:08:41;19.30;99.90
2997;DHT22;1508;48.744;9.110;2022-08-18T01:11:27;19.30;99.90
2997;DHT22;1508;48.744;9.110;2022-08-18T01:14:13;19.30;99.90
2997;DHT22;1508;48.744;9.110;2022-08-18T01:16:59;19.30;99.90
2997;DHT22;1508;48.744;9.110;2022-08-18T01:19:46;19.30;99.90
2997;DHT22;1508;48.744;9.110;2022-08-18T01:25:31;19.40;99.90
2997;DHT22;1508;48.744;9.110;2022-08-18T01:28:17;19.40;99.90
2997;DHT22;1508;48.744;9.110;2022-08-18T01:31:03;19.30;99.90
2997;DHT22;1508;48.744;9.110;2022-08-18T01:33:50;19.30;99.90
2997;DHT22;1508;48.744;9.110;2022-08-18T01:36:37;19.30;99.90
2997;DHT22;1508;48.744;9.110;2022-08-18T01:39:24;19.30;99.90
2997;DHT22;1508;48.744;9.110;2022-08-18T01:42:12;19.30;99.90
2997;DHT22;1508;48.744;9.110;2022-08-18T01:44:58;19.20;99.90
2997;DHT22;1508;48.744;9.110;2022-08-18T01:47:44;19.30;99.90
2997;DHT22;1508;48.744;9.110;2022-08-18T01:50:30;19.30;99.90
2997;DHT22;1508;48.744;9.110;2022-08-18T01:53:16;19.20;99.90
2997;DHT22;1508;48.744;9.110;2022-08-18T01:56:02;19.20;99.90
2997;DHT22;1508;48.744;9.110;2022-08-18T01:58:48;19.20;99.90
2997;DHT22;1508;48.744;9.110;2022-08-18T02:01:37;19.20;99.90
2997;DHT22;1508;48.744;9.110;2022-08-18T02:04:26;19.20;99.90
2997;DHT22;1508;48.744;9.110;2022-08-18T02:07:13;19.10;99.90
2997;DHT22;1508;48.744;9.110;2022-08-18T02:09:59;19.10;99.90
2997;DHT22;1508;48.744;9.110;2022-08-18T02:12:45;19.00;99.90
2997;DHT22;1508;48.744;9.110;2022-08-18T02:15:31;18.90;99.90
2997;DHT22;1508;48.744;9.110;2022-08-18T02:18:19;18.80;99.90
2997;DHT22;1508;48.744;9.110;2022-08-18T02:21:09;18.70;99.90
2997;DHT22;1508;48.744;9.110;2022-08-18T02:23:56;18.70;99.90
2997;DHT22;1508;48.744;9.110;2022-08-18T02:26:43;18.60;99.90
2997;DHT22;1508;48.744;9.110;2022-08-18T02:29:29;18.60;99.90
2997;DHT22;1508;48.744;9.110;2022-08-18T02:32:14;18.50;99.90
2997;DHT22;1508;48.744;9.110;2022-08-18T02:35:00;18.40;99.90
2997;DHT22;1508;48.744;9.110;2022-08-18T02:37:46;18.20;99.90
2997;DHT22;1508;48.744;9.110;2022-08-18T02:40:34;18.00;99.90
2997;DHT22;1508;48.744;9.110;2022-08-18T02:43:20;18.00;99.90
2997;DHT22;1508;48.744;9.110;2022-08-18T02:46:06;17.90;99.90
2997;DHT22;1508;48.744;9.110;2022-08-18T02:48:52;17.90;99.90
2997;DHT22;1508;48.744;9.110;2022-08-18T02:51:38;17.90;99.90
2997;DHT22;1508;48.744;9.110;2022-08-18T02:54:24;17.90;99.90
2997;DHT22;1508;48.744;9.110;2022-08-18T02:57:11;17.80;99.90
2997;DHT22;1508;48.744;9.110;2022-08-18T02:59:58;17.60;99.90
2997;DHT22;1508;48.744;9.110;2022-08-18T03:02:49;17.60;99.90
2997;DHT22;1508;48.744;9.110;2022-08-18T03:05:35;17.60;99.90
2997;DHT22;1508;48.744;9.110;2022-08-18T03:08:20;17.60;99.90
2997;DHT22;1508;48.744;9.110;2022-08-18T03:11:06;17.60;99.90
2997;DHT22;1508;48.744;9.110;2022-08-18T03:13:53;17.60;99.90
2997;DHT22;1508;48.744;9.110;2022-08-18T03:16:42;17.60;99.90
2997;DHT22;1508;48.744;9.110;2022-08-18T03:19:29;17.60;99.90
2997;DHT22;1508;48.744;9.110;2022-08-18T03:22:15;17.60;99.90
2997;DHT22;1508;48.744;9.110;2022-08-18T03:25:00;17.60;99.90
2997;DHT22;1508;48.744;9.110;2022-08-18T03:27:46;17.60;99.90
2997;DHT22;1508;48.744;9.110;2022-08-18T03:30:32;17.50;99.90
2997;DHT22;1508;48.744;9.110;2022-08-18T03:33:19;17.50;99.90
2997;DHT22;1508;48.744;9.110;2022-08-18T03:36:06;17.50;99.90
2997;DHT22;1508;48.744;9.110;2022-08-18T03:38:53;17.50;99.90
2997;DHT22;1508;48.744;9.110;2022-08-18T03:41:41;17.50;99.90
2997;DHT22;1508;48.744;9.110;2022-08-18T03:44:30;17.60;99.90
2997;DHT22;1508;48.744;9.110;2022-08-18T03:47:16;17.70;99.90
2997;DHT22;1508;48.744;9.110;2022-08-18T03:50:02;17.90;99.90
2997;DHT22;1508;48.744;9.110;2022-08-18T03:52:48;17.90;99.90
2997;DHT22;1508;48.744;9.110;2022-08-18T03:55:34;18.00;99.90
2997;DHT22;1508;48.744;9.110;2022-08-18T03:58:20;18.00;99.90
2997;DHT22;1508;48.744;9.110;2022-08-18T04:01:05;18.00;99.90
2997;DHT22;1508;48.744;9.110;2022-08-18T04:03:54;18.10;99.90
2997;DHT22;1508;48.744;9.110;2022-08-18T04:07:06;18.00;99.90
2997;DHT22;1508;48.744;9.110;2022-08-18T04:09:49;18.10;99.90
2997;DHT22;1508;48.744;9.110;2022-08-18T04:12:35;18.00;99.90
2997;DHT22;1508;48.744;9.110;2022-08-18T04:15:21;18.00;99.90
2997;DHT22;1508;48.744;9.110;2022-08-18T04:18:06;17.90;99.90
2997;DHT22;1508;48.744;9.110;2022-08-18T04:20:52;18.00;99.90
2997;DHT22;1508;48.744;9.110;2022-08-18T04:23:40;18.00;99.90
2997;DHT22;1508;48.744;9.110;2022-08-18T04:26:26;18.10;99.90
2997;DHT22;1508;48.744;9.110;2022-08-18T04:29:14;18.20;99.90
2997;DHT22;1508;48.744;9.110;2022-08-18T04:32:01;18.30;99.90
2997;DHT22;1508;48.744;9.110;2022-08-18T04:34:47;18.30;99.90
2997;DHT22;1508;48.744;9.110;2022-08-18T04:37:36;18.40;99.90
2997;DHT22;1508;48.744;9.110;2022-08-18T04:40:22;18.50;99.90
2997;DHT22;1508;48.744;9.110;2022-08-18T04:43:08;18.60;99.90
2997;DHT22;1508;48.744;9.110;2022-08-18T04:45:54;18.60;99.90
2997;DHT22;1508;48.744;9.110;2022-08-18T04:48:40;18.60;99.90
2997;DHT22;1508;48.744;9.110;2022-08-18T04:51:28;18.70;99.90
2997;DHT22;1508;48.744;9.110;2022-08-18T04:54:14;18.70;99.90
2997;DHT22;1508;48.744;9.110;2022-08-18T04:57:06;18.70;99.90
2997;DHT22;1508;48.744;9.110;2022-08-18T04:59:52;18.80;99.90
2997;DHT22;1508;48.744;9.110;2022-08-18T05:02:38;18.90;99.90
2997;DHT22;1508;48.744;9.110;2022-08-18T05:05:24;19.00;99.90
2997;DHT22;1508;48.744;9.110;2022-08-18T05:08:10;19.20;99.90
2997;DHT22;1508;48.744;9.110;2022-08-18T05:10:56;19.30;99.90
2997;DHT22;1508;48.744;9.110;2022-08-18T05:13:42;19.30;99.90
2997;DHT22;1508;48.744;9.110;2022-08-18T05:16:29;19.30;99.90
2997;DHT22;1508;48.744;9.110;2022-08-18T05:19:17;19.30;99.90
2997;DHT22;1508;48.744;9.110;2022-08-18T05:22:03;19.30;99.90
2997;DHT22;1508;48.744;9.110;2022-08-18T05:24:49;19.30;99.90
2997;DHT22;1508;48.744;9.110;2022-08-18T05:27:38;19.50;99.90
2997;DHT22;1508;48.744;9.110;2022-08-18T05:30:24;19.60;99.90
2997;DHT22;1508;48.744;9.110;2022-08-18T05:33:10;19.60;99.90
2997;DHT22;1508;48.744;9.110;2022-08-18T05:36:01;19.60;99.90
2997;DHT22;1508;48.744;9.110;2022-08-18T05:38:58;19.90;99.90
2997;DHT22;1508;48.744;9.110;2022-08-18T05:44:51;20.10;99.90
2997;DHT22;1508;48.744;9.110;2022-08-18T05:47:37;20.20;99.90
2997;DHT22;1508;48.744;9.110;2022-08-18T05:50:23;20.30;99.90
2997;DHT22;1508;48.744;9.110;2022-08-18T05:53:13;20.20;99.90
2997;DHT22;1508;48.744;9.110;2022-08-18T05:56:02;20.30;99.90
2997;DHT22;1508;48.744;9.110;2022-08-18T05:58:52;20.30;99.90
2997;DHT22;1508;48.744;9.110;2022-08-18T06:01:41;20.20;99.90
2997;DHT22;1508;48.744;9.110;2022-08-18T06:07:42;20.30;99.90
2997;DHT22;1508;48.744;9.110;2022-08-18T06:10:28;20.40;99.90
2997;DHT22;1508;48.744;9.110;2022-08-18T06:13:15;20.40;99.90
2997;DHT22;1508;48.744;9.110;2022-08-18T06:16:19;20.60;99.90
2997;DHT22;1508;48.744;9.110;2022-08-18T06:25:17;21.30;99.90
2997;DHT22;1508;48.744;9.110;2022-08-18T06:28:10;21.60;99.90
2997;DHT22;1508;48.744;9.110;2022-08-18T06:31:03;21.70;99.90
2997;DHT22;1508;48.744;9.110;2022-08-18T06:37:09;21.90;99.90
2997;DHT22;1508;48.744;9.110;2022-08-18T06:39:55;22.10;99.90
2997;DHT22;1508;48.744;9.110;2022-08-18T06:42:41;22.00;99.90
2997;DHT22;1508;48.744;9.110;2022-08-18T06:45:34;21.90;99.90
2997;DHT22;1508;48.744;9.110;2022-08-18T06:51:11;21.70;99.90
2997;DHT22;1508;48.744;9.110;2022-08-18T06:54:04;21.60;99.90
2997;DHT22;1508;48.744;9.110;2022-08-18T06:56:52;21.60;99.90
2997;DHT22;1508;48.744;9.110;2022-08-18T06:59:38;21.80;99.90
2997;DHT22;1508;48.744;9.110;2022-08-18T07:05:20;22.10;99.90
2997;DHT22;1508;48.744;9.110;2022-08-18T07:11:36;22.40;99.90
2997;DHT22;1508;48.744;9.110;2022-08-18T07:14:23;22.60;99.90
2997;DHT22;1508;48.744;9.110;2022-08-18T07:17:12;22.30;99.90
2997;DHT22;1508;48.744;9.110;2022-08-18T07:20:20;22.40;99.90
2997;DHT22;1508;48.744;9.110;2022-08-18T07:23:07;22.50;99.90
2997;DHT22;1508;48.744;9.110;2022-08-18T07:26:34;22.30;99.90
2997;DHT22;1508;48.744;9.110;2022-08-18T07:29:14;22.10;99.90
2997;DHT22;1508;48.744;9.110;2022-08-18T07:32:12;22.20;99.90
2997;DHT22;1508;48.744;9.110;2022-08-18T07:35:04;22.30;99.90
2997;DHT22;1508;48.744;9.110;2022-08-18T07:37:55;22.30;99.90
2997;DHT22;1508;48.744;9.110;2022-08-18T07:40:54;22.30;99.90
2997;DHT22;1508;48.744;9.110;2022-08-18T07:46:37;22.30;99.90
2997;DHT22;1508;48.744;9.110;2022-08-18T07:49:30;22.20;99.90
2997;DHT22;1508;48.744;9.110;2022-08-18T07:55:32;22.10;99.90
2997;DHT22;1508;48.744;9.110;2022-08-18T08:01:47;21.70;99.90
2997;DHT22;1508;48.744;9.110;2022-08-18T08:04:43;21.60;99.90
2997;DHT22;1508;48.744;9.110;2022-08-18T08:07:50;21.60;99.90
2997;DHT22;1508;48.744;9.110;2022-08-18T08:10:53;21.60;99.90
2997;DHT22;1508;48.744;9.110;2022-08-18T08:13:52;21.60;99.90
2997;DHT22;1508;48.744;9.110;2022-08-18T08:16:50;21.40;99.90
2997;DHT22;1508;48.744;9.110;2022-08-18T08:26:35;21.10;99.90
2997;DHT22;1508;48.744;9.110;2022-08-18T08:36:04;21.80;99.90
2997;DHT22;1508;48.744;9.110;2022-08-18T08:39:04;21.90;99.90
2997;DHT22;1508;48.744;9.110;2022-08-18T08:45:06;22.40;99.90
2997;DHT22;1508;48.744;9.110;2022-08-18T08:50:57;23.10;99.90
2997;DHT22;1508;48.744;9.110;2022-08-18T08:53:48;23.10;99.90
2997;DHT22;1508;48.744;9.110;2022-08-18T08:56:41;23.20;99.90
2997;DHT22;1508;48.744;9.110;2022-08-18T08:59:27;23.60;99.90
2997;DHT22;1508;48.744;9.110;2022-08-18T09:02:40;23.70;99.90
2997;DHT22;1508;48.744;9.110;2022-08-18T09:05:35;24.00;99.90
2997;DHT22;1508;48.744;9.110;2022-08-18T09:11:25;23.70;99.90
2997;DHT22;1508;48.744;9.110;2022-08-18T09:14:38;23.60;99.90
2997;DHT22;1508;48.744;9.110;2022-08-18T09:17:51;23.30;99.90
2997;DHT22;1508;48.744;9.110;2022-08-18T09:23:53;23.80;99.90
2997;DHT22;1508;48.744;9.110;2022-08-18T09:26:53;24.10;99.90
2997;DHT22;1508;48.744;9.110;2022-08-18T09:29:58;23.80;99.90
2997;DHT22;1508;48.744;9.110;2022-08-18T09:33:12;24.00;99.90
2997;DHT22;1508;48.744;9.110;2022-08-18T09:39:33;24.10;99.90
2997;DHT22;1508;48.744;9.110;2022-08-18T09:42:43;24.30;99.90
2997;DHT22;1508;48.744;9.110;2022-08-18T09:48:24;23.90;99.90
2997;DHT22;1508;48.744;9.110;2022-08-18T09:51:19;24.00;99.90
2997;DHT22;1508;48.744;9.110;2022-08-18T09:54:13;24.50;99.90
2997;DHT22;1508;48.744;9.110;2022-08-18T10:00:17;24.80;99.90
2997;DHT22;1508;48.744;9.110;2022-08-18T10:03:11;24.30;99.90
2997;DHT22;1508;48.744;9.110;2022-08-18T10:06:05;24.40;99.90
2997;DHT22;1508;48.744;9.110;2022-08-18T10:09:06;24.50;99.90
2997;DHT22;1508;48.744;9.110;2022-08-18T10:15:37;24.50;99.90
2997;DHT22;1508;48.744;9.110;2022-08-18T10:18:57;24.80;99.90
2997;DHT22;1508;48.744;9.110;2022-08-18T10:24:58;24.80;99.90
2997;DHT22;1508;48.744;9.110;2022-08-18T10:27:49;24.70;99.90
2997;DHT22;1508;48.744;9.110;2022-08-18T10:36:47;25.10;99.90
2997;DHT22;1508;48.744;9.110;2022-08-18T10:45:26;24.20;99.90
2997;DHT22;1508;48.744;9.110;2022-08-18T10:51:26;24.70;99.90
2997;DHT22;1508;48.744;9.110;2022-08-18T10:58:08;25.00;99.90
2997;DHT22;1508;48.744;9.110;2022-08-18T11:07:13;24.10;99.90
2997;DHT22;1508;48.744;9.110;2022-08-18T11:09:59;24.40;99.90
2997;DHT22;1508;48.744;9.110;2022-08-18T11:19:27;25.40;99.90
2997;DHT22;1508;48.744;9.110;2022-08-18T11:22:22;25.40;99.90
2997;DHT22;1508;48.744;9.110;2022-08-18T11:25:36;25.60;99.90
2997;DHT22;1508;48.744;9.110;2022-08-18T11:28:28;25.40;99.90
2997;DHT22;1508;48.744;9.110;2022-08-18T11:31:14;25.40;99.90
2997;DHT22;1508;48.744;9.110;2022-08-18T11:34:00;25.80;99.90
2997;DHT22;1508;48.744;9.110;2022-08-18T11:36:58;26.10;99.90
2997;DHT22;1508;48.744;9.110;2022-08-18T11:39:47;25.90;99.90
2997;DHT22;1508;48.744;9.110;2022-08-18T11:42:38;25.30;99.90
2997;DHT22;1508;48.744;9.110;2022-08-18T11:45:28;25.10;99.90
2997;DHT22;1508;48.744;9.110;2022-08-18T11:51:32;25.10;99.90
2997;DHT22;1508;48.744;9.110;2022-08-18T11:54:21;25.40;99.90
2997;DHT22;1508;48.744;9.110;2022-08-18T11:57:48;25.50;99.90
2997;DHT22;1508;48.744;9.110;2022-08-18T12:03:30;25.90;99.90
2997;DHT22;1508;48.744;9.110;2022-08-18T12:06:27;26.00;99.90
2997;DHT22;1508;48.744;9.110;2022-08-18T12:12:28;25.20;99.90
2997;DHT22;1508;48.744;9.110;2022-08-18T12:18:01;25.20;99.90
2997;DHT22;1508;48.744;9.110;2022-08-18T12:20:48;25.30;99.90
2997;DHT22;1508;48.744;9.110;2022-08-18T12:23:35;25.50;99.90
2997;DHT22;1508;48.744;9.110;2022-08-18T12:26:21;25.20;99.90
2997;DHT22;1508;48.744;9.110;2022-08-18T12:29:07;24.90;99.90
2997;DHT22;1508;48.744;9.110;2022-08-18T12:31:54;25.10;99.90
2997;DHT22;1508;48.744;9.110;2022-08-18T12:34:40;25.50;99.90
2997;DHT22;1508;48.744;9.110;2022-08-18T12:37:28;25.70;99.90
2997;DHT22;1508;48.744;9.110;2022-08-18T12:40:14;25.60;99.90
2997;DHT22;1508;48.744;9.110;2022-08-18T12:42:59;25.10;99.90
2997;DHT22;1508;48.744;9.110;2022-08-18T12:45:46;25.00;99.90
2997;DHT22;1508;48.744;9.110;2022-08-18T12:48:31;25.30;99.90
2997;DHT22;1508;48.744;9.110;2022-08-18T12:51:17;25.30;99.90
2997;DHT22;1508;48.744;9.110;2022-08-18T12:54:03;25.20;99.90
2997;DHT22;1508;48.744;9.110;2022-08-18T12:56:51;25.30;99.90
2997;DHT22;1508;48.744;9.110;2022-08-18T12:59:37;25.30;99.90
2997;DHT22;1508;48.744;9.110;2022-08-18T13:02:23;25.50;99.90
2997;DHT22;1508;48.744;9.110;2022-08-18T13:05:09;25.80;99.90
2997;DHT22;1508;48.744;9.110;2022-08-18T13:07:57;25.80;99.90
2997;DHT22;1508;48.744;9.110;2022-08-18T13:10:44;25.40;99.90
2997;DHT22;1508;48.744;9.110;2022-08-18T13:13:29;25.00;99.90
2997;DHT22;1508;48.744;9.110;2022-08-18T13:16:16;25.10;99.90
2997;DHT22;1508;48.744;9.110;2022-08-18T13:19:02;25.60;99.90
2997;DHT22;1508;48.744;9.110;2022-08-18T13:21:48;25.70;99.90
2997;DHT22;1508;48.744;9.110;2022-08-18T13:24:34;25.90;99.90
2997;DHT22;1508;48.744;9.110;2022-08-18T13:27:20;26.30;99.90
2997;DHT22;1508;48.744;9.110;2022-08-18T13:30:11;26.10;99.90
2997;DHT22;1508;48.744;9.110;2022-08-18T13:32:59;26.20;99.90
2997;DHT22;1508;48.744;9.110;2022-08-18T13:35:46;25.70;99.90
2997;DHT22;1508;48.744;9.110;2022-08-18T13:38:32;25.40;99.90
2997;DHT22;1508;48.744;9.110;2022-08-18T13:41:18;25.60;99.90
2997;DHT22;1508;48.744;9.110;2022-08-18T13:44:05;25.80;99.90
2997;DHT22;1508;48.744;9.110;2022-08-18T13:46:51;25.90;99.90
2997;DHT22;1508;48.744;9.110;2022-08-18T13:49:37;26.10;99.90
2997;DHT22;1508;48.744;9.110;2022-08-18T13:52:22;26.20;99.90
2997;DHT22;1508;48.744;9.110;2022-08-18T13:55:13;26.40;99.90
2997;DHT22;1508;48.744;9.110;2022-08-18T13:57:59;26.30;99.90
2997;DHT22;1508;48.744;9.110;2022-08-18T14:00:54;26.30;99.90
2997;DHT22;1508;48.744;9.110;2022-08-18T14:03:40;26.40;99.90
2997;DHT22;1508;48.744;9.110;2022-08-18T14:06:26;26.10;99.90
2997;DHT22;1508;48.744;9.110;2022-08-18T14:09:12;26.00;99.90
2997;DHT22;1508;48.744;9.110;2022-08-18T14:11:58;26.20;99.90
2997;DHT22;1508;48.744;9.110;2022-08-18T14:14:44;26.20;99.90
2997;DHT22;1508;48.744;9.110;2022-08-18T14:17:30;26.40;99.90
2997;DHT22;1508;48.744;9.110;2022-08-18T14:20:16;26.30;99.90
2997;DHT22;1508;48.744;9.110;2022-08-18T14:23:03;26.40;99.90
2997;DHT22;1508;48.744;9.110;2022-08-18T14:25:49;26.30;99.90
2997;DHT22;1508;48.744;9.110;2022-08-18T14:28:35;26.50;99.90
2997;DHT22;1508;48.744;9.110;2022-08-18T14:31:21;26.30;99.90
2997;DHT22;1508;48.744;9.110;2022-08-18T14:34:07;26.00;99.90
2997;DHT22;1508;48.744;9.110;2022-08-18T14:36:53;26.10;99.90
2997;DHT22;1508;48.744;9.110;2022-08-18T14:39:39;25.90;99.90
2997;DHT22;1508;48.744;9.110;2022-08-18T14:42:26;26.00;99.90
2997;DHT22;1508;48.744;9.110;2022-08-18T14:45:12;25.90;99.90
2997;DHT22;1508;48.744;9.110;2022-08-18T14:47:59;25.80;99.90
2997;DHT22;1508;48.744;9.110;2022-08-18T14:50:48;25.70;99.90
2997;DHT22;1508;48.744;9.110;2022-08-18T14:53:35;25.70;99.90
2997;DHT22;1508;48.744;9.110;2022-08-18T14:56:21;26.10;99.90
2997;DHT22;1508;48.744;9.110;2022-08-18T14:59:06;26.30;99.90
2997;DHT22;1508;48.744;9.110;2022-08-18T15:01:53;26.20;99.90
2997;DHT22;1508;48.744;9.110;2022-08-18T15:04:39;26.40;99.90
2997;DHT22;1508;48.744;9.110;2022-08-18T15:07:25;26.40;99.90
2997;DHT22;1508;48.744;9.110;2022-08-18T15:10:12;26.40;99.90
2997;DHT22;1508;48.744;9.110;2022-08-18T15:12:59;26.70;99.90
2997;DHT22;1508;48.744;9.110;2022-08-18T15:15:45;27.10;99.90
2997;DHT22;1508;48.744;9.110;2022-08-18T15:18:30;27.30;99.90
2997;DHT22;1508;48.744;9.110;2022-08-18T15:21:16;27.20;99.90
2997;DHT22;1508;48.744;9.110;2022-08-18T15:24:03;26.80;99.90
2997;DHT22;1508;48.744;9.110;2022-08-18T15:26:52;26.50;99.90
2997;DHT22;1508;48.744;9.110;2022-08-18T15:29:38;26.40;99.90
2997;DHT22;1508;48.744;9.110;2022-08-18T15:32:24;26.40;99.90
2997;DHT22;1508;48.744;9.110;2022-08-18T15:35:11;26.40;99.90
2997;DHT22;1508;48.744;9.110;2022-08-18T15:37:57;26.50;99.90
2997;DHT22;1508;48.744;9.110;2022-08-18T15:40:57;26.10;99.90
2997;DHT22;1508;48.744;9.110;2022-08-18T15:43:43;26.40;99.90
2997;DHT22;1508;48.744;9.110;2022-08-18T15:46:34;26.20;99.90
2997;DHT22;1508;48.744;9.110;2022-08-18T15:49:21;26.10;99.90
2997;DHT22;1508;48.744;9.110;2022-08-18T15:52:11;26.20;99.90
2997;DHT22;1508;48.744;9.110;2022-08-18T15:55:00;26.20;99.90
2997;DHT22;1508;48.744;9.110;2022-08-18T15:57:46;26.20;99.90
2997;DHT22;1508;48.744;9.110;2022-08-18T16:00:32;26.10;99.90
2997;DHT22;1508;48.744;9.110;2022-08-18T16:03:18;26.00;99.90
2997;DHT22;1508;48.744;9.110;2022-08-18T16:06:04;25.80;99.90
2997;DHT22;1508;48.744;9.110;2022-08-18T16:08:52;25.70;99.90
2997;DHT22;1508;48.744;9.110;2022-08-18T16:11:38;25.60;99.90
2997;DHT22;1508;48.744;9.110;2022-08-18T16:14:25;25.60;99.90
2997;DHT22;1508;48.744;9.110;2022-08-18T16:17:10;25.50;99.90
2997;DHT22;1508;48.744;9.110;2022-08-18T16:19:56;25.40;99.90
2997;DHT22;1508;48.744;9.110;2022-08-18T16:22:42;25.40;99.90
2997;DHT22;1508;48.744;9.110;2022-08-18T16:25:28;25.40;99.90
2997;DHT22;1508;48.744;9.110;2022-08-18T16:28:14;25.40;99.90
2997;DHT22;1508;48.744;9.110;2022-08-18T16:31:01;25.50;99.90
2997;DHT22;1508;48.744;9.110;2022-08-18T16:33:47;25.40;99.90
2997;DHT22;1508;48.744;9.110;2022-08-18T16:36:32;25.40;99.90
2997;DHT22;1508;48.744;9.110;2022-08-18T16:39:18;25.30;99.90
2997;DHT22;1508;48.744;9.110;2022-08-18T16:42:04;25.20;99.90
2997;DHT22;1508;48.744;9.110;2022-08-18T16:44:50;25.20;99.90
2997;DHT22;1508;48.744;9.110;2022-08-18T16:47:36;25.10;99.90
2997;DHT22;1508;48.744;9.110;2022-08-18T16:50:22;24.90;99.90
2997;DHT22;1508;48.744;9.110;2022-08-18T16:53:08;24.60;99.90
2997;DHT22;1508;48.744;9.110;2022-08-18T16:55:53;24.40;99.90
2997;DHT22;1508;48.744;9.110;2022-08-18T16:58:39;24.40;99.90
2997;DHT22;1508;48.744;9.110;2022-08-18T17:01:25;24.40;99.90
2997;DHT22;1508;48.744;9.110;2022-08-18T17:04:14;24.30;99.90
2997;DHT22;1508;48.744;9.110;2022-08-18T17:07:02;24.20;99.90
2997;DHT22;1508;48.744;9.110;2022-08-18T17:09:48;24.00;99.90
2997;DHT22;1508;48.744;9.110;2022-08-18T17:12:34;23.90;99.90
2997;DHT22;1508;48.744;9.110;2022-08-18T17:15:20;23.80;99.90
2997;DHT22;1508;48.744;9.110;2022-08-18T17:18:06;23.70;99.90
2997;DHT22;1508;48.744;9.110;2022-08-18T17:20:53;23.60;99.90
2997;DHT22;1508;48.744;9.110;2022-08-18T17:23:39;23.50;99.90
2997;DHT22;1508;48.744;9.110;2022-08-18T17:29:41;23.30;99.90
2997;DHT22;1508;48.744;9.110;2022-08-18T17:35:40;23.10;99.90
2997;DHT22;1508;48.744;9.110;2022-08-18T17:41:18;23.10;99.90
2997;DHT22;1508;48.744;9.110;2022-08-18T17:44:04;23.00;99.90
2997;DHT22;1508;48.744;9.110;2022-08-18T17:46:51;23.00;99.90
2997;DHT22;1508;48.744;9.110;2022-08-18T17:49:41;23.00;99.90
2997;DHT22;1508;48.744;9.110;2022-08-18T17:52:36;23.00;99.90
2997;DHT22;1508;48.744;9.110;2022-08-18T17:55:26;22.90;99.90
2997;DHT22;1508;48.744;9.110;2022-08-18T18:01:30;22.80;99.90
2997;DHT22;1508;48.744;9.110;2022-08-18T18:04:16;22.70;99.90
2997;DHT22;1508;48.744;9.110;2022-08-18T18:07:02;22.70;99.90
2997;DHT22;1508;48.744;9.110;2022-08-18T18:10:10;22.60;99.90
2997;DHT22;1508;48.744;9.110;2022-08-18T18:13:12;22.50;99.90
2997;DHT22;1508;48.744;9.110;2022-08-18T18:16:28;22.50;99.90
2997;DHT22;1508;48.744;9.110;2022-08-18T18:19:14;22.40;99.90
2997;DHT22;1508;48.744;9.110;2022-08-18T18:22:20;22.40;99.90
2997;DHT22;1508;48.744;9.110;2022-08-18T18:25:08;22.30;99.90
2997;DHT22;1508;48.744;9.110;2022-08-18T18:27:54;22.20;99.90
2997;DHT22;1508;48.744;9.110;2022-08-18T18:30:40;22.20;99.90
2997;DHT22;1508;48.744;9.110;2022-08-18T18:33:28;22.20;99.90
2997;DHT22;1508;48.744;9.110;2022-08-18T18:36:31;22.20;99.90
2997;DHT22;1508;48.744;9.110;2022-08-18T18:39:30;22.10;99.90
2997;DHT22;1508;48.744;9.110;2022-08-18T18:42:19;22.10;99.90
2997;DHT22;1508;48.744;9.110;2022-08-18T18:45:25;22.10;99.90
2997;DHT22;1508;48.744;9.110;2022-08-18T18:48:17;22.00;99.90
2997;DHT22;1508;48.744;9.110;2022-08-18T18:51:13;22.10;99.90
2997;DHT22;1508;48.744;9.110;2022-08-18T18:54:20;22.00;99.90
2997;DHT22;1508;48.744;9.110;2022-08-18T18:57:16;22.00;99.90
2997;DHT22;1508;48.744;9.110;2022-08-18T19:00:23;22.00;99.90
2997;DHT22;1508;48.744;9.110;2022-08-18T19:09:30;21.90;99.90
2997;DHT22;1508;48.744;9.110;2022-08-18T19:15:14;21.80;99.90
2997;DHT22;1508;48.744;9.110;2022-08-18T19:18:08;21.80;99.90
2997;DHT22;1508;48.744;9.110;2022-08-18T19:21:06;21.80;99.90
2997;DHT22;1508;48.744;9.110;2022-08-18T19:24:00;21.70;99.90
2997;DHT22;1508;48.744;9.110;2022-08-18T19:26:52;21.60;99.90
2997;DHT22;1508;48.744;9.110;2022-08-18T19:29:41;21.60;99.90
2997;DHT22;1508;48.744;9.110;2022-08-18T19:32:38;21.60;99.90
2997;DHT22;1508;48.744;9.110;2022-08-18T19:38:49;21.50;99.90
2997;DHT22;1508;48.744;9.110;2022-08-18T19:41:42;21.60;99.90
2997;DHT22;1508;48.744;9.110;2022-08-18T19:44:46;21.50;99.90
2997;DHT22;1508;48.744;9.110;2022-08-18T19:47:42;21.50;99.90
2997;DHT22;1508;48.744;9.110;2022-08-18T19:50:42;21.50;99.90
2997;DHT22;1508;48.744;9.110;2022-08-18T20:16:33;21.40;99.90
2997;DHT22;1508;48.744;9.110;2022-08-18T20:19:42;21.40;99.90
2997;DHT22;1508;48.744;9.110;2022-08-18T20:22:49;21.40;99.90
2997;DHT22;1508;48.744;9.110;2022-08-18T20:25:39;21.40;99.90
2997;DHT22;1508;48.744;9.110;2022-08-18T20:28:33;21.40;99.90
2997;DHT22;1508;48.744;9.110;2022-08-18T20:31:21;21.30;99.90
2997;DHT22;1508;48.744;9.110;2022-08-18T20:34:10;21.30;99.90
2997;DHT22;1508;48.744;9.110;2022-08-18T20:36:58;21.30;99.90
2997;DHT22;1508;48.744;9.110;2022-08-18T20:39:48;21.30;99.90
2997;DHT22;1508;48.744;9.110;2022-08-18T20:42:42;21.30;99.90
2997;DHT22;1508;48.744;9.110;2022-08-18T20:45:32;21.30;99.90
2997;DHT22;1508;48.744;9.110;2022-08-18T20:51:43;21.20;99.90
2997;DHT22;1508;48.744;9.110;2022-08-18T20:57:54;21.10;99.90
2997;DHT22;1508;48.744;9.110;2022-08-18T21:00:47;21.20;99.90
2997;DHT22;1508;48.744;9.110;2022-08-18T21:03:42;21.10;99.90
2997;DHT22;1508;48.744;9.110;2022-08-18T21:06:31;21.00;99.90
2997;DHT22;1508;48.744;9.110;2022-08-18T21:09:19;21.00;99.90
2997;DHT22;1508;48.744;9.110;2022-08-18T21:12:05;21.10;99.90
2997;DHT22;1508;48.744;9.110;2022-08-18T21:14:53;21.10;99.90
2997;DHT22;1508;48.744;9.110;2022-08-18T21:17:39;21.10;99.90
2997;DHT22;1508;48.744;9.110;2022-08-18T21:20:26;21.00;99.90
2997;DHT22;1508;48.744;9.110;2022-08-18T21:23:12;21.00;99.90
2997;DHT22;1508;48.744;9.110;2022-08-18T21:26:04;21.00;99.90
2997;DHT22;1508;48.744;9.110;2022-08-18T21:28:56;21.00;99.90